KLAL Airport Information

Runway Information
Runway 05 Length 5000 ft width 150 ft
Elevation 130 ft Threshold 0 ft Heading 45
Runway 23 Length 5000 ft Width 150 ft
Elevation 141 ft Threshold 0 ft Heading 225
Runway 09 Length 8500 ft width 150 ft
Elevation 132 ft Threshold 0 ft Heading 90
Runway 27 Length 8500 ft Width 150 ft
Elevation 142 ft Threshold 0 ft Heading 270
Airport Frequencies
Type A/D Name TAMPA APP/ Frequency 119.9 MHZ
Type ATIS Name ATIS Frequency 118.025 MHZ
Type CTAF Name CTAF Frequency 124.5 MHZ
Type GND Name GND Frequency 121.4 MHZ
Type RDO Name ST PETERSB Frequency 116 MHZ
Type TWR Name TWR Frequency 124.5 MHZ
Type UNIC Name UNICOM Frequency 122.95 MHZ
Airport Navaids
Type NDB Name Wirey Frequency 227 KHZ
Type VORTAC Name Lakeland Frequency 116000 KHZ
Airport Weather Information & NOTAM
ADDS - METARS form results

(0250 UTC 29 September 2021)
Data provider http://aviationweather.gov/metar/data/
 
METAR text: KLAL 290235Z AUTO 09005KT 10SM CLR 23/17 A3003 RMK AO2 PNO
Conditions at: KLAL (LAKELAND REGIONA, FL, US) observed 0235 UTC 29 September 2021
Temperature: 23.0°C (73°F)
Dewpoint: 17.0°C (63°F) [RH = 69%]
Pressure (altimeter): 30.03 inches Hg (1017.0 mb)
Winds: from the E (90 degrees) at 6 MPH (5 knots; 2.6 m/s)
Visibility: 10 or more miles (16+ km)
Ceiling: at least 12,000 feet AGL
Clouds: sky clear below 12,000 feet AGL
Weather: automated observation with no human augmentation;
there may or may not be significant weather present at this time

METAR text: KLAL 290215Z AUTO 10005KT 10SM CLR 23/17 A3002 RMK AO2 PNO
Conditions at: KLAL (LAKELAND REGIONA, FL, US) observed 0215 UTC 29 September 2021
Temperature: 23.0°C (73°F)
Dewpoint: 17.0°C (63°F) [RH = 69%]
Pressure (altimeter): 30.02 inches Hg (1016.7 mb)
Winds: from the E (100 degrees) at 6 MPH (5 knots; 2.6 m/s)
Visibility: 10 or more miles (16+ km)
Ceiling: at least 12,000 feet AGL
Clouds: sky clear below 12,000 feet AGL
Weather: automated observation with no human augmentation;
there may or may not be significant weather present at this time

Forecast for: KLAL (LAKELAND REGIONA, FL, US)
Text: KLAL 282320Z 2900/2924 VRB03KT P6SM FEW250
Forecast period: 0000 to 1500 UTC 29 September 2021
Forecast type: FROM: standard forecast or significant change
Winds: variable direction winds at 3 MPH (3 knots; 1.5 m/s)
Visibility: 6 or more miles (10+ km)
Ceiling: at least 12,000 feet AGL
Clouds: few clouds at 25000 feet AGL
Weather: no significant weather forecast for this period
Text: FM291500 06005KT P6SM SCT050 SCT250
Forecast period: 1500 UTC 29 September 2021 to 0000 UTC 30 September 2021
Forecast type: FROM: standard forecast or significant change
Winds: from the ENE (60 degrees) at 6 MPH (5 knots; 2.6 m/s)
Visibility: 6 or more miles (10+ km)
Ceiling: at least 12,000 feet AGL
Clouds: scattered clouds at 5000 feet AGL
scattered clouds at 25000 feet AGL
Weather: no significant weather forecast for this period